TimeEST,TemperatureF,Dew PointF,Humidity,Sea Level PressureIn,VisibilityMPH,Wind Direction,Wind SpeedMPH,Gust SpeedMPH,PrecipitationIn,Events,Conditions,WindDirDegrees,DateUTC
12:53 AM,25.0,18.0,75,29.78,2.0,Calm,Calm,-,0.00,Snow,Light Snow,0,2013-02-04 05:53:00
12:59 AM,24.8,19.4,80,29.78,2.0,Calm,Calm,-,0.00,Snow,Light Snow,0,2013-02-04 05:59:00
1:09 AM,24.8,19.4,80,29.78,5.0,South,3.5,-,0.00,Snow,Light Snow,180,2013-02-04 06:09:00
1:44 AM,24.8,19.4,80,29.78,10.0,SW,3.5,-,0.00,,Overcast,230,2013-02-04 06:44:00
1:53 AM,25.0,18.0,75,29.78,10.0,Calm,Calm,-,0.00,,Overcast,0,2013-02-04 06:53:00
2:05 AM,24.8,17.6,74,29.79,10.0,West,5.8,-,N/A,,Overcast,260,2013-02-04 07:05:00
2:53 AM,25.0,16.0,69,29.79,9.0,WNW,5.8,-,0.00,,Mostly Cloudy,290,2013-02-04 07:53:00
3:53 AM,23.0,14.0,68,29.81,10.0,WSW,4.6,-,N/A,,Partly Cloudy,240,2013-02-04 08:53:00
5:53 AM,23.0,8.1,53,29.86,10.0,West,10.4,18.4,N/A,,Clear,270,2013-02-04 10:53:00
6:53 AM,23.0,8.1,53,29.88,10.0,West,13.8,-,N/A,,Partly Cloudy,260,2013-02-04 11:53:00
7:53 AM,23.0,7.0,50,29.89,10.0,West,9.2,-,N/A,,Partly Cloudy,260,2013-02-04 12:53:00
8:53 AM,24.1,8.1,51,29.91,10.0,WSW,13.8,20.7,N/A,,Partly Cloudy,250,2013-02-04 13:53:00
9:53 AM,26.1,8.1,47,29.91,10.0,West,13.8,20.7,N/A,,Clear,280,2013-02-04 14:53:00
10:53 AM,27.0,6.1,41,29.91,10.0,West,15.0,-,N/A,,Overcast,260,2013-02-04 15:53:00
11:53 AM,28.0,-9999,N/A,29.89,-9999.0,WNW,13.8,18.4,N/A,,Mostly Cloudy,290,2013-02-04 16:53:00
12:53 PM,30.9,-9999,N/A,29.88,10.0,West,15.0,25.3,N/A,,Mostly Cloudy,260,2013-02-04 17:53:00
1:53 PM,30.9,3.9,32,29.87,10.0,West,17.3,24.2,N/A,,Mostly Cloudy,260,2013-02-04 18:53:00
2:53 PM,30.9,3.0,31,29.87,10.0,West,19.6,26.5,N/A,,Partly Cloudy,270,2013-02-04 19:53:00
3:53 PM,30.0,3.0,32,29.88,10.0,West,10.4,-,N/A,,Partly Cloudy,270,2013-02-04 20:53:00
4:53 PM,28.0,3.0,34,29.90,10.0,West,15.0,21.9,N/A,,Clear,280,2013-02-04 21:53:00
5:53 PM,27.0,3.9,37,29.92,10.0,West,10.4,17.3,N/A,,Clear,260,2013-02-04 22:53:00
6:53 PM,27.0,3.9,37,29.94,10.0,West,3.5,-,N/A,,Clear,280,2013-02-04 23:53:00
7:53 PM,26.1,5.0,41,29.94,10.0,Calm,Calm,-,N/A,,Clear,0,2013-02-05 00:53:00